sensor_id;sensor_type;location;lat;lon;timestamp;pressure;altitude;pressure_sealevel;temperature;humidity
4570;BME280;2297;51.442;6.996;2023-08-08T00:00:02;100177.56;;;15.58;54.80
4570;BME280;2297;51.442;6.996;2023-08-08T00:02:29;100178.75;;;15.51;54.99
4570;BME280;2297;51.442;6.996;2023-08-08T00:04:56;100169.22;;;15.66;54.53
4570;BME280;2297;51.442;6.996;2023-08-08T00:07:23;100170.22;;;15.63;54.32
4570;BME280;2297;51.442;6.996;2023-08-08T00:09:50;100181.66;;;15.44;54.67
4570;BME280;2297;51.442;6.996;2023-08-08T00:12:16;100167.66;;;15.41;54.68
4570;BME280;2297;51.442;6.996;2023-08-08T00:14:44;100170.78;;;15.51;54.44
4570;BME280;2297;51.442;6.996;2023-08-08T00:17:11;100156.16;;;15.20;55.14
4570;BME280;2297;51.442;6.996;2023-08-08T00:19:38;100164.00;;;15.43;54.81
4570;BME280;2297;51.442;6.996;2023-08-08T00:22:23;100166.50;;;15.26;55.12
4570;BME280;2297;51.442;6.996;2023-08-08T00:24:49;100158.94;;;15.37;54.92
4570;BME280;2297;51.442;6.996;2023-08-08T00:27:16;100157.72;;;15.44;54.52
4570;BME280;2297;51.442;6.996;2023-08-08T00:29:44;100161.88;;;15.52;54.11
4570;BME280;2297;51.442;6.996;2023-08-08T00:32:12;100164.13;;;15.40;54.51
4570;BME280;2297;51.442;6.996;2023-08-08T00:34:38;100165.88;;;15.21;54.64
4570;BME280;2297;51.442;6.996;2023-08-08T00:37:05;100175.75;;;15.38;54.28
4570;BME280;2297;51.442;6.996;2023-08-08T00:39:32;100167.13;;;15.10;54.79
4570;BME280;2297;51.442;6.996;2023-08-08T00:41:58;100170.63;;;15.12;54.60
4570;BME280;2297;51.442;6.996;2023-08-08T00:44:25;100168.53;;;15.21;54.74
4570;BME280;2297;51.442;6.996;2023-08-08T00:46:54;100163.03;;;15.44;53.99
4570;BME280;2297;51.442;6.996;2023-08-08T00:49:21;100162.91;;;15.27;54.09
4570;BME280;2297;51.442;6.996;2023-08-08T00:51:47;100158.50;;;15.05;55.29
4570;BME280;2297;51.442;6.996;2023-08-08T00:54:14;100164.44;;;14.90;55.71
4570;BME280;2297;51.442;6.996;2023-08-08T00:56:41;100165.03;;;15.19;54.91
4570;BME280;2297;51.442;6.996;2023-08-08T00:59:08;100165.66;;;15.25;54.33
4570;BME280;2297;51.442;6.996;2023-08-08T01:01:38;100162.91;;;15.27;54.67
4570;BME280;2297;51.442;6.996;2023-08-08T01:04:06;100164.78;;;15.45;54.07
4570;BME280;2297;51.442;6.996;2023-08-08T01:06:38;100161.13;;;15.48;54.26
4570;BME280;2297;51.442;6.996;2023-08-08T01:09:10;100162.84;;;15.49;53.90
4570;BME280;2297;51.442;6.996;2023-08-08T01:11:40;100158.88;;;15.59;53.81
4570;BME280;2297;51.442;6.996;2023-08-08T01:14:09;100158.69;;;15.43;53.98
4570;BME280;2297;51.442;6.996;2023-08-08T01:16:37;100153.88;;;15.31;54.66
4570;BME280;2297;51.442;6.996;2023-08-08T01:19:07;100151.59;;;15.22;54.87
4570;BME280;2297;51.442;6.996;2023-08-08T01:21:35;100160.94;;;15.32;54.77
4570;BME280;2297;51.442;6.996;2023-08-08T01:24:18;100154.00;;;15.28;54.69
4570;BME280;2297;51.442;6.996;2023-08-08T01:26:46;100147.09;;;15.24;54.84
4570;BME280;2297;51.442;6.996;2023-08-08T01:29:13;100147.34;;;15.18;55.08
4570;BME280;2297;51.442;6.996;2023-08-08T01:31:40;100149.59;;;14.84;56.01
4570;BME280;2297;51.442;6.996;2023-08-08T01:34:06;100146.09;;;15.04;55.60
4570;BME280;2297;51.442;6.996;2023-08-08T01:36:39;100139.06;;;15.03;55.62
4570;BME280;2297;51.442;6.996;2023-08-08T01:39:08;100136.53;;;15.00;55.71
4570;BME280;2297;51.442;6.996;2023-08-08T01:41:42;100139.19;;;15.00;55.75
4570;BME280;2297;51.442;6.996;2023-08-08T01:44:10;100141.53;;;15.08;55.63
4570;BME280;2297;51.442;6.996;2023-08-08T01:46:37;100146.44;;;15.19;55.32
4570;BME280;2297;51.442;6.996;2023-08-08T01:49:04;100140.84;;;15.25;55.09
4570;BME280;2297;51.442;6.996;2023-08-08T01:51:31;100133.78;;;14.81;56.33
4570;BME280;2297;51.442;6.996;2023-08-08T01:53:58;100135.22;;;15.10;55.72
4570;BME280;2297;51.442;6.996;2023-08-08T01:56:24;100133.34;;;14.92;56.02
4570;BME280;2297;51.442;6.996;2023-08-08T01:58:52;100135.88;;;14.95;56.00
4570;BME280;2297;51.442;6.996;2023-08-08T02:01:19;100129.31;;;15.04;55.80
4570;BME280;2297;51.442;6.996;2023-08-08T02:03:46;100130.53;;;14.95;55.96
4570;BME280;2297;51.442;6.996;2023-08-08T02:06:13;100117.25;;;14.95;55.97
4570;BME280;2297;51.442;6.996;2023-08-08T02:08:40;100105.72;;;14.74;56.65
4570;BME280;2297;51.442;6.996;2023-08-08T02:11:06;100098.44;;;14.79;56.54
4570;BME280;2297;51.442;6.996;2023-08-08T02:16:56;100105.03;;;14.91;56.11
4570;BME280;2297;51.442;6.996;2023-08-08T02:19:23;100101.38;;;14.93;56.01
4570;BME280;2297;51.442;6.996;2023-08-08T02:21:50;100100.63;;;14.69;56.85
4570;BME280;2297;51.442;6.996;2023-08-08T02:24:16;100106.31;;;14.60;57.10
4570;BME280;2297;51.442;6.996;2023-08-08T02:26:43;100113.53;;;14.78;56.73
4570;BME280;2297;51.442;6.996;2023-08-08T02:29:10;100109.53;;;14.89;56.26
4570;BME280;2297;51.442;6.996;2023-08-08T02:31:36;100114.94;;;14.21;57.82
4570;BME280;2297;51.442;6.996;2023-08-08T02:34:04;100111.41;;;14.42;57.85
4570;BME280;2297;51.442;6.996;2023-08-08T02:36:31;100106.00;;;14.45;57.35
4570;BME280;2297;51.442;6.996;2023-08-08T02:38:58;100102.91;;;14.10;58.53
4570;BME280;2297;51.442;6.996;2023-08-08T02:41:25;100112.16;;;14.68;57.11
4570;BME280;2297;51.442;6.996;2023-08-08T02:43:51;100104.06;;;14.71;57.30
4570;BME280;2297;51.442;6.996;2023-08-08T02:46:18;100110.09;;;14.97;56.39
4570;BME280;2297;51.442;6.996;2023-08-08T02:48:45;100101.28;;;14.74;56.75
4570;BME280;2297;51.442;6.996;2023-08-08T02:51:13;100107.81;;;14.88;56.87
4570;BME280;2297;51.442;6.996;2023-08-08T02:53:39;100104.97;;;14.70;57.09
4570;BME280;2297;51.442;6.996;2023-08-08T02:56:06;100096.66;;;15.00;56.36
4570;BME280;2297;51.442;6.996;2023-08-08T02:58:33;100099.78;;;14.89;56.69
4570;BME280;2297;51.442;6.996;2023-08-08T03:00:59;100102.16;;;14.53;58.22
4570;BME280;2297;51.442;6.996;2023-08-08T03:03:27;100092.28;;;14.34;58.61
4570;BME280;2297;51.442;6.996;2023-08-08T03:05:53;100085.38;;;14.73;57.99
4570;BME280;2297;51.442;6.996;2023-08-08T03:08:22;100087.41;;;14.88;57.83
4570;BME280;2297;51.442;6.996;2023-08-08T03:10:49;100083.59;;;14.94;57.95
4570;BME280;2297;51.442;6.996;2023-08-08T03:13:16;100082.28;;;14.84;58.66
4570;BME280;2297;51.442;6.996;2023-08-08T03:15:43;100088.06;;;14.93;58.67
4570;BME280;2297;51.442;6.996;2023-08-08T03:18:09;100091.88;;;14.88;59.16
4570;BME280;2297;51.442;6.996;2023-08-08T03:20:36;100088.00;;;14.95;58.95
4570;BME280;2297;51.442;6.996;2023-08-08T03:23:03;100090.94;;;15.09;58.69
4570;BME280;2297;51.442;6.996;2023-08-08T03:25:31;100098.63;;;14.95;58.96
4570;BME280;2297;51.442;6.996;2023-08-08T03:27:58;100100.75;;;14.87;59.44
4570;BME280;2297;51.442;6.996;2023-08-08T03:30:24;100102.88;;;14.78;59.86
4570;BME280;2297;51.442;6.996;2023-08-08T03:32:51;100095.69;;;14.80;60.14
4570;BME280;2297;51.442;6.996;2023-08-08T03:35:18;100097.28;;;14.85;60.59
4570;BME280;2297;51.442;6.996;2023-08-08T03:37:45;100094.25;;;14.73;61.25
4570;BME280;2297;51.442;6.996;2023-08-08T03:40:11;100082.78;;;14.51;61.59
4570;BME280;2297;51.442;6.996;2023-08-08T03:42:41;100080.56;;;14.83;61.38
4570;BME280;2297;51.442;6.996;2023-08-08T03:45:09;100075.25;;;14.83;60.93
4570;BME280;2297;51.442;6.996;2023-08-08T03:47:35;100079.63;;;14.84;61.35
4570;BME280;2297;51.442;6.996;2023-08-08T03:50:03;100075.13;;;14.63;61.87
4570;BME280;2297;51.442;6.996;2023-08-08T03:52:30;100084.59;;;14.49;62.32
4570;BME280;2297;51.442;6.996;2023-08-08T03:54:59;100081.16;;;14.24;63.20
4570;BME280;2297;51.442;6.996;2023-08-08T03:57:26;100076.47;;;14.31;63.11
4570;BME280;2297;51.442;6.996;2023-08-08T03:59:54;100080.19;;;14.27;63.39
4570;BME280;2297;51.442;6.996;2023-08-08T04:02:21;100066.94;;;14.47;62.81
4570;BME280;2297;51.442;6.996;2023-08-08T04:04:48;100075.84;;;14.46;62.78
4570;BME280;2297;51.442;6.996;2023-08-08T04:07:14;100075.59;;;14.53;62.77
4570;BME280;2297;51.442;6.996;2023-08-08T04:09:41;100072.25;;;14.47;62.83
4570;BME280;2297;51.442;6.996;2023-08-08T04:12:08;100077.84;;;14.41;62.97
4570;BME280;2297;51.442;6.996;2023-08-08T04:14:35;100080.41;;;14.65;62.56
4570;BME280;2297;51.442;6.996;2023-08-08T04:17:03;100079.13;;;14.53;62.64
4570;BME280;2297;51.442;6.996;2023-08-08T04:19:30;100076.03;;;14.64;62.42
4570;BME280;2297;51.442;6.996;2023-08-08T04:21:56;100071.75;;;14.60;62.41
4570;BME280;2297;51.442;6.996;2023-08-08T04:24:23;100063.13;;;14.55;62.92
4570;BME280;2297;51.442;6.996;2023-08-08T04:26:50;100060.75;;;14.69;62.17
4570;BME280;2297;51.442;6.996;2023-08-08T04:29:17;100073.19;;;14.24;63.79
4570;BME280;2297;51.442;6.996;2023-08-08T04:31:43;100061.25;;;14.57;63.00
4570;BME280;2297;51.442;6.996;2023-08-08T04:34:11;100071.75;;;14.60;62.91
4570;BME280;2297;51.442;6.996;2023-08-08T04:36:38;100061.97;;;14.60;63.06
4570;BME280;2297;51.442;6.996;2023-08-08T04:39:05;100072.16;;;14.71;62.91
4570;BME280;2297;51.442;6.996;2023-08-08T04:41:31;100075.53;;;14.32;64.07
4570;BME280;2297;51.442;6.996;2023-08-08T04:43:58;100073.59;;;14.58;63.37
4570;BME280;2297;51.442;6.996;2023-08-08T04:46:25;100078.06;;;14.57;63.19
4570;BME280;2297;51.442;6.996;2023-08-08T04:48:52;100067.91;;;14.67;63.26
4570;BME280;2297;51.442;6.996;2023-08-08T04:51:20;100061.25;;;14.57;63.58
4570;BME280;2297;51.442;6.996;2023-08-08T04:53:47;100058.63;;;14.77;62.87
4570;BME280;2297;51.442;6.996;2023-08-08T04:56:13;100057.66;;;14.58;63.68
4570;BME280;2297;51.442;6.996;2023-08-08T04:58:40;100055.50;;;14.68;63.17
4570;BME280;2297;51.442;6.996;2023-08-08T05:01:07;100060.59;;;14.72;63.13
4570;BME280;2297;51.442;6.996;2023-08-08T05:03:37;100053.44;;;14.74;63.01
4570;BME280;2297;51.442;6.996;2023-08-08T05:06:03;100049.69;;;14.58;63.71
4570;BME280;2297;51.442;6.996;2023-08-08T05:08:31;100051.09;;;14.67;63.70
4570;BME280;2297;51.442;6.996;2023-08-08T05:10:58;100051.22;;;14.63;64.10
4570;BME280;2297;51.442;6.996;2023-08-08T05:13:25;100066.16;;;14.66;63.72
4570;BME280;2297;51.442;6.996;2023-08-08T05:15:51;100057.88;;;14.74;63.50
4570;BME280;2297;51.442;6.996;2023-08-08T05:18:18;100059.00;;;14.68;63.60
4570;BME280;2297;51.442;6.996;2023-08-08T05:20:46;100066.66;;;14.76;63.68
4570;BME280;2297;51.442;6.996;2023-08-08T05:23:13;100062.72;;;14.64;64.07
4570;BME280;2297;51.442;6.996;2023-08-08T05:25:41;100067.91;;;14.67;64.13
4570;BME280;2297;51.442;6.996;2023-08-08T05:28:08;100068.28;;;14.13;65.87
4570;BME280;2297;51.442;6.996;2023-08-08T05:30:35;100068.78;;;14.68;64.22
4570;BME280;2297;51.442;6.996;2023-08-08T05:33:02;100062.34;;;14.73;64.27
4570;BME280;2297;51.442;6.996;2023-08-08T05:35:28;100059.09;;;14.67;64.52
4570;BME280;2297;51.442;6.996;2023-08-08T05:37:55;100061.41;;;14.74;64.07
4570;BME280;2297;51.442;6.996;2023-08-08T05:40:22;100061.66;;;14.68;64.57
4570;BME280;2297;51.442;6.996;2023-08-08T05:42:50;100056.97;;;14.53;65.15
4570;BME280;2297;51.442;6.996;2023-08-08T05:45:17;100066.81;;;14.51;64.89
4570;BME280;2297;51.442;6.996;2023-08-08T05:48:02;100052.31;;;14.80;64.26
4570;BME280;2297;51.442;6.996;2023-08-08T05:50:29;100064.19;;;14.71;64.65
4570;BME280;2297;51.442;6.996;2023-08-08T05:52:55;100070.00;;;14.14;66.99
4570;BME280;2297;51.442;6.996;2023-08-08T05:55:22;100066.22;;;14.44;65.41
4570;BME280;2297;51.442;6.996;2023-08-08T05:57:50;100068.25;;;14.37;65.65
4570;BME280;2297;51.442;6.996;2023-08-08T06:00:17;100071.25;;;14.72;65.05
4570;BME280;2297;51.442;6.996;2023-08-08T06:02:44;100078.88;;;14.37;65.96
4570;BME280;2297;51.442;6.996;2023-08-08T06:05:11;100074.13;;;14.45;66.13
4570;BME280;2297;51.442;6.996;2023-08-08T06:07:38;100068.44;;;14.55;66.00
4570;BME280;2297;51.442;6.996;2023-08-08T06:10:05;100081.84;;;14.06;67.88
4570;BME280;2297;51.442;6.996;2023-08-08T06:12:33;100080.63;;;14.81;65.50
4570;BME280;2297;51.442;6.996;2023-08-08T06:15:01;100082.69;;;14.74;65.42
4570;BME280;2297;51.442;6.996;2023-08-08T06:17:29;100084.69;;;14.90;64.73
4570;BME280;2297;51.442;6.996;2023-08-08T06:19:56;100082.81;;;14.92;64.75
4570;BME280;2297;51.442;6.996;2023-08-08T06:22:23;100078.28;;;14.73;65.68
4570;BME280;2297;51.442;6.996;2023-08-08T06:24:50;100087.56;;;14.63;65.97
4570;BME280;2297;51.442;6.996;2023-08-08T06:27:17;100085.50;;;15.12;64.55
4570;BME280;2297;51.442;6.996;2023-08-08T06:29:44;100083.41;;;15.21;64.03
4570;BME280;2297;51.442;6.996;2023-08-08T06:32:12;100088.53;;;14.83;65.36
4570;BME280;2297;51.442;6.996;2023-08-08T06:34:38;100092.47;;;14.94;64.98
4570;BME280;2297;51.442;6.996;2023-08-08T06:37:05;100088.41;;;14.86;65.28
4570;BME280;2297;51.442;6.996;2023-08-08T06:39:32;100090.13;;;14.87;65.31
4570;BME280;2297;51.442;6.996;2023-08-08T06:42:00;100094.63;;;14.64;66.18
4570;BME280;2297;51.442;6.996;2023-08-08T06:44:26;100097.69;;;14.75;65.91
4570;BME280;2297;51.442;6.996;2023-08-08T06:46:53;100099.97;;;15.05;65.09
4570;BME280;2297;51.442;6.996;2023-08-08T06:49:21;100096.84;;;14.53;66.62
4570;BME280;2297;51.442;6.996;2023-08-08T06:51:48;100088.41;;;14.86;65.86
4570;BME280;2297;51.442;6.996;2023-08-08T06:54:14;100086.16;;;14.97;65.40
4570;BME280;2297;51.442;6.996;2023-08-08T06:56:41;100094.69;;;14.83;66.10
4570;BME280;2297;51.442;6.996;2023-08-08T06:59:08;100087.56;;;14.41;68.16
4570;BME280;2297;51.442;6.996;2023-08-08T07:01:34;100093.84;;;14.83;66.04
4570;BME280;2297;51.442;6.996;2023-08-08T07:04:01;100095.34;;;15.10;65.22
4570;BME280;2297;51.442;6.996;2023-08-08T07:06:30;100090.53;;;14.77;65.49
4570;BME280;2297;51.442;6.996;2023-08-08T07:08:56;100088.06;;;14.93;65.98
4570;BME280;2297;51.442;6.996;2023-08-08T07:11:24;100076.81;;;15.07;65.43
4570;BME280;2297;51.442;6.996;2023-08-08T07:13:50;100068.63;;;15.34;64.54
4570;BME280;2297;51.442;6.996;2023-08-08T07:16:17;100074.31;;;15.45;64.01
4570;BME280;2297;51.442;6.996;2023-08-08T07:18:44;100080.84;;;15.38;64.29
4570;BME280;2297;51.442;6.996;2023-08-08T07:21:10;100077.28;;;15.77;63.24
4570;BME280;2297;51.442;6.996;2023-08-08T07:23:38;100080.03;;;15.76;63.09
4570;BME280;2297;51.442;6.996;2023-08-08T07:26:05;100073.00;;;15.94;62.55
4570;BME280;2297;51.442;6.996;2023-08-08T07:28:32;100068.28;;;16.01;62.21
4570;BME280;2297;51.442;6.996;2023-08-08T07:30:58;100073.66;;;16.18;61.67
4570;BME280;2297;51.442;6.996;2023-08-08T07:33:25;100077.28;;;15.77;62.93
4570;BME280;2297;51.442;6.996;2023-08-08T07:35:52;100069.09;;;15.82;62.41
4570;BME280;2297;51.442;6.996;2023-08-08T07:38:18;100064.72;;;16.00;62.04
4570;BME280;2297;51.442;6.996;2023-08-08T07:40:47;100059.34;;;16.02;62.03
4570;BME280;2297;51.442;6.996;2023-08-08T07:43:13;100057.72;;;15.78;62.34
4570;BME280;2297;51.442;6.996;2023-08-08T07:45:42;100062.06;;;16.00;61.74
4570;BME280;2297;51.442;6.996;2023-08-08T07:48:09;100064.66;;;16.21;61.13
4570;BME280;2297;51.442;6.996;2023-08-08T07:50:35;100063.34;;;16.10;61.15
4570;BME280;2297;51.442;6.996;2023-08-08T07:53:02;100071.25;;;15.93;61.41
4570;BME280;2297;51.442;6.996;2023-08-08T07:55:29;100076.22;;;15.82;61.61
4570;BME280;2297;51.442;6.996;2023-08-08T07:57:57;100057.03;;;16.13;60.64
4570;BME280;2297;51.442;6.996;2023-08-08T08:00:24;100057.72;;;15.97;61.26
4570;BME280;2297;51.442;6.996;2023-08-08T08:02:51;100056.56;;;16.41;60.53
4570;BME280;2297;51.442;6.996;2023-08-08T08:05:17;100062.34;;;16.32;60.58
4570;BME280;2297;51.442;6.996;2023-08-08T08:07:44;100063.94;;;16.71;59.20
4570;BME280;2297;51.442;6.996;2023-08-08T08:10:11;100060.19;;;16.58;59.15
4570;BME280;2297;51.442;6.996;2023-08-08T08:12:40;100057.22;;;16.99;57.87
4570;BME280;2297;51.442;6.996;2023-08-08T08:15:10;100060.53;;;17.04;57.85
4570;BME280;2297;51.442;6.996;2023-08-08T08:17:37;100066.50;;;17.09;57.21
4570;BME280;2297;51.442;6.996;2023-08-08T08:20:05;100064.13;;;16.86;57.87
4570;BME280;2297;51.442;6.996;2023-08-08T08:22:36;100060.84;;;16.98;57.38
4570;BME280;2297;51.442;6.996;2023-08-08T08:25:03;100060.44;;;16.34;59.47
4570;BME280;2297;51.442;6.996;2023-08-08T08:27:30;100059.75;;;16.85;58.42
4570;BME280;2297;51.442;6.996;2023-08-08T08:29:57;100065.56;;;17.10;57.66
4570;BME280;2297;51.442;6.996;2023-08-08T08:32:25;100060.38;;;16.90;58.44
4570;BME280;2297;51.442;6.996;2023-08-08T08:34:52;100058.63;;;16.71;58.44
4570;BME280;2297;51.442;6.996;2023-08-08T08:37:18;100061.91;;;16.76;58.14
4570;BME280;2297;51.442;6.996;2023-08-08T08:39:45;100066.22;;;17.32;56.60
4570;BME280;2297;51.442;6.996;2023-08-08T08:42:13;100052.34;;;16.72;56.87
4570;BME280;2297;51.442;6.996;2023-08-08T08:44:41;100046.88;;;16.93;56.84
4570;BME280;2297;51.442;6.996;2023-08-08T08:47:12;100050.41;;;16.76;57.59
4570;BME280;2297;51.442;6.996;2023-08-08T08:49:42;100048.69;;;16.92;56.31
4570;BME280;2297;51.442;6.996;2023-08-08T08:52:12;100050.28;;;17.30;56.32
4570;BME280;2297;51.442;6.996;2023-08-08T08:54:39;100046.28;;;17.55;55.27
4570;BME280;2297;51.442;6.996;2023-08-08T08:57:06;100053.34;;;17.73;54.79
4570;BME280;2297;51.442;6.996;2023-08-08T08:59:32;100052.50;;;17.22;54.41
4570;BME280;2297;51.442;6.996;2023-08-08T09:01:59;100052.03;;;17.47;52.92
4570;BME280;2297;51.442;6.996;2023-08-08T09:04:28;100047.47;;;17.99;52.29
4570;BME280;2297;51.442;6.996;2023-08-08T09:06:56;100067.13;;;18.13;52.58
4570;BME280;2297;51.442;6.996;2023-08-08T09:09:23;100057.66;;;17.76;53.63
4570;BME280;2297;51.442;6.996;2023-08-08T09:11:51;100049.72;;;17.74;52.04
4570;BME280;2297;51.442;6.996;2023-08-08T09:14:20;100049.75;;;17.57;53.04
4570;BME280;2297;51.442;6.996;2023-08-08T09:16:47;100050.75;;;17.88;51.87
4570;BME280;2297;51.442;6.996;2023-08-08T09:19:14;100048.50;;;18.28;51.28
4570;BME280;2297;51.442;6.996;2023-08-08T09:21:43;100052.91;;;18.29;50.93
4570;BME280;2297;51.442;6.996;2023-08-08T09:24:11;100045.22;;;18.23;50.64
4570;BME280;2297;51.442;6.996;2023-08-08T09:26:39;100043.78;;;18.17;50.06
4570;BME280;2297;51.442;6.996;2023-08-08T09:29:06;100057.41;;;18.12;48.25
4570;BME280;2297;51.442;6.996;2023-08-08T09:31:34;100051.44;;;17.75;48.89
4570;BME280;2297;51.442;6.996;2023-08-08T09:34:02;100047.31;;;18.02;47.62
4570;BME280;2297;51.442;6.996;2023-08-08T09:36:29;100039.81;;;17.76;47.95
4570;BME280;2297;51.442;6.996;2023-08-08T09:38:56;100044.56;;;18.03;47.44
4570;BME280;2297;51.442;6.996;2023-08-08T09:41:25;100047.66;;;18.27;46.72
4570;BME280;2297;51.442;6.996;2023-08-08T09:43:53;100046.28;;;18.04;46.92
4570;BME280;2297;51.442;6.996;2023-08-08T09:46:29;100047.66;;;18.11;46.93
4570;BME280;2297;51.442;6.996;2023-08-08T09:48:57;100052.03;;;17.81;47.86
4570;BME280;2297;51.442;6.996;2023-08-08T09:51:25;100050.16;;;17.83;47.75
4570;BME280;2297;51.442;6.996;2023-08-08T09:53:53;100055.13;;;17.39;48.70
4570;BME280;2297;51.442;6.996;2023-08-08T09:56:21;100045.59;;;17.85;48.54
4570;BME280;2297;51.442;6.996;2023-08-08T09:58:51;100051.09;;;17.82;48.80
4570;BME280;2297;51.442;6.996;2023-08-08T10:01:18;100053.34;;;17.73;49.25
4570;BME280;2297;51.442;6.996;2023-08-08T10:03:46;100046.69;;;17.81;49.09
4570;BME280;2297;51.442;6.996;2023-08-08T10:06:13;100048.97;;;17.55;49.67
4570;BME280;2297;51.442;6.996;2023-08-08T10:08:40;100045.59;;;18.17;49.47
4570;BME280;2297;51.442;6.996;2023-08-08T10:11:09;100042.91;;;18.49;48.47
4570;BME280;2297;51.442;6.996;2023-08-08T10:13:37;100033.34;;;17.96;47.85
4570;BME280;2297;51.442;6.996;2023-08-08T10:16:07;100041.16;;;18.48;47.13
4570;BME280;2297;51.442;6.996;2023-08-08T10:18:35;100051.00;;;17.99;47.87
4570;BME280;2297;51.442;6.996;2023-08-08T10:21:04;100050.81;;;18.34;47.26
4570;BME280;2297;51.442;6.996;2023-08-08T10:23:36;100058.47;;;18.72;46.45
4570;BME280;2297;51.442;6.996;2023-08-08T10:26:03;100060.84;;;18.47;46.33
4570;BME280;2297;51.442;6.996;2023-08-08T10:28:32;100047.97;;;18.53;46.68
4570;BME280;2297;51.442;6.996;2023-08-08T10:31:00;100051.16;;;18.28;47.36
4570;BME280;2297;51.442;6.996;2023-08-08T10:33:41;100040.81;;;18.54;46.66
4570;BME280;2297;51.442;6.996;2023-08-08T10:36:08;100052.66;;;17.86;47.76
4570;BME280;2297;51.442;6.996;2023-08-08T10:38:40;100043.44;;;17.75;48.15
4570;BME280;2297;51.442;6.996;2023-08-08T10:41:10;100052.06;;;17.63;48.75
4570;BME280;2297;51.442;6.996;2023-08-08T10:43:37;100052.81;;;18.15;46.75
4570;BME280;2297;51.442;6.996;2023-08-08T10:46:04;100048.00;;;18.05;46.83
4570;BME280;2297;51.442;6.996;2023-08-08T10:48:31;100051.09;;;18.13;46.53
4570;BME280;2297;51.442;6.996;2023-08-08T10:51:00;100052.94;;;17.63;45.93
4570;BME280;2297;51.442;6.996;2023-08-08T10:53:27;100048.69;;;18.25;44.98
4570;BME280;2297;51.442;6.996;2023-08-08T10:55:59;100059.56;;;18.22;45.93
4570;BME280;2297;51.442;6.996;2023-08-08T10:58:37;100051.78;;;18.01;44.94
4570;BME280;2297;51.442;6.996;2023-08-08T11:01:05;100048.59;;;18.26;44.78
4570;BME280;2297;51.442;6.996;2023-08-08T11:03:35;100046.97;;;18.70;44.38
4570;BME280;2297;51.442;6.996;2023-08-08T11:06:03;100045.34;;;19.12;44.23
4570;BME280;2297;51.442;6.996;2023-08-08T11:08:31;100047.81;;;19.01;44.76
4570;BME280;2297;51.442;6.996;2023-08-08T11:10:58;100059.00;;;18.63;45.57
4570;BME280;2297;51.442;6.996;2023-08-08T11:13:26;100068.94;;;18.45;45.71
4570;BME280;2297;51.442;6.996;2023-08-08T11:15:52;100063.31;;;17.86;46.92
4570;BME280;2297;51.442;6.996;2023-08-08T11:18:19;100056.63;;;17.94;46.73
4570;BME280;2297;51.442;6.996;2023-08-08T11:20:47;100062.09;;;17.59;46.87
4570;BME280;2297;51.442;6.996;2023-08-08T11:23:16;100056.72;;;17.93;46.98
4570;BME280;2297;51.442;6.996;2023-08-08T11:25:44;100065.59;;;17.60;47.47
4570;BME280;2297;51.442;6.996;2023-08-08T11:28:12;100065.75;;;18.06;47.77
4570;BME280;2297;51.442;6.996;2023-08-08T11:30:41;100056.44;;;17.82;47.84
4570;BME280;2297;51.442;6.996;2023-08-08T11:33:09;100060.41;;;17.74;48.03
4570;BME280;2297;51.442;6.996;2023-08-08T11:35:36;100049.91;;;18.19;46.90
4570;BME280;2297;51.442;6.996;2023-08-08T11:38:04;100042.75;;;18.20;46.84
4570;BME280;2297;51.442;6.996;2023-08-08T11:40:33;100052.13;;;17.95;47.08
4570;BME280;2297;51.442;6.996;2023-08-08T11:43:00;100038.69;;;18.44;46.12
4570;BME280;2297;51.442;6.996;2023-08-08T11:45:26;100044.53;;;18.35;45.97
4570;BME280;2297;51.442;6.996;2023-08-08T11:47:55;100045.38;;;18.52;46.32
4570;BME280;2297;51.442;6.996;2023-08-08T11:50:23;100045.63;;;18.63;45.87
4570;BME280;2297;51.442;6.996;2023-08-08T11:52:51;100044.03;;;19.05;44.81
4570;BME280;2297;51.442;6.996;2023-08-08T11:55:19;100038.31;;;19.26;44.43
4570;BME280;2297;51.442;6.996;2023-08-08T11:57:49;100051.22;;;18.89;45.23
4570;BME280;2297;51.442;6.996;2023-08-08T12:00:16;100038.28;;;19.11;45.30
4570;BME280;2297;51.442;6.996;2023-08-08T12:02:43;100026.84;;;19.24;44.93
4570;BME280;2297;51.442;6.996;2023-08-08T12:05:13;100025.69;;;19.57;44.14
4570;BME280;2297;51.442;6.996;2023-08-08T12:07:42;100031.03;;;19.42;45.05
4570;BME280;2297;51.442;6.996;2023-08-08T12:10:14;100029.50;;;19.38;44.91
4570;BME280;2297;51.442;6.996;2023-08-08T12:12:41;100019.34;;;19.00;44.64
4570;BME280;2297;51.442;6.996;2023-08-08T12:15:10;100040.81;;;18.99;44.83
4570;BME280;2297;51.442;6.996;2023-08-08T12:17:37;100022.00;;;19.15;44.70
4570;BME280;2297;51.442;6.996;2023-08-08T12:20:06;100032.19;;;19.53;44.72
4570;BME280;2297;51.442;6.996;2023-08-08T12:22:33;100024.63;;;19.16;45.21
4570;BME280;2297;51.442;6.996;2023-08-08T12:25:00;100039.84;;;19.44;44.77
4570;BME280;2297;51.442;6.996;2023-08-08T12:27:29;100013.56;;;19.22;44.80
4570;BME280;2297;51.442;6.996;2023-08-08T12:29:56;100030.63;;;19.92;43.14
4570;BME280;2297;51.442;6.996;2023-08-08T12:32:25;100031.59;;;19.62;42.61
4570;BME280;2297;51.442;6.996;2023-08-08T12:34:54;100030.66;;;19.49;43.40
4570;BME280;2297;51.442;6.996;2023-08-08T12:37:21;100019.75;;;20.35;42.48
4570;BME280;2297;51.442;6.996;2023-08-08T12:39:48;100031.81;;;19.73;42.75
4570;BME280;2297;51.442;6.996;2023-08-08T12:42:15;100026.91;;;19.80;41.81
4570;BME280;2297;51.442;6.996;2023-08-08T12:44:42;100024.22;;;20.22;41.71
4570;BME280;2297;51.442;6.996;2023-08-08T12:47:10;100027.47;;;20.27;42.21
4570;BME280;2297;51.442;6.996;2023-08-08T12:49:38;100019.91;;;20.06;43.19
4570;BME280;2297;51.442;6.996;2023-08-08T12:52:05;100030.66;;;19.77;45.07
4570;BME280;2297;51.442;6.996;2023-08-08T12:54:32;100029.00;;;19.89;45.27
4570;BME280;2297;51.442;6.996;2023-08-08T12:56:58;100028.75;;;19.65;45.51
4570;BME280;2297;51.442;6.996;2023-08-08T12:59:25;100020.66;;;19.79;45.69
4570;BME280;2297;51.442;6.996;2023-08-08T13:01:51;100028.41;;;20.13;45.12
4570;BME280;2297;51.442;6.996;2023-08-08T13:04:18;100025.00;;;20.24;45.41
4570;BME280;2297;51.442;6.996;2023-08-08T13:06:46;100026.13;;;19.92;46.06
4570;BME280;2297;51.442;6.996;2023-08-08T13:09:13;100025.84;;;19.97;45.56
4570;BME280;2297;51.442;6.996;2023-08-08T13:11:40;100022.19;;;19.98;44.56
4570;BME280;2297;51.442;6.996;2023-08-08T13:14:07;100020.84;;;19.91;43.82